FSrealWX - Weather AddOn for Flightsimulators FS2004, FSX, P3D and Xplane

Bug Windy and Temperature

More
8 months 1 day ago - 8 months 1 day ago #2650 by pedropedra
When flying, temperature and wind are not performed correctly in the simulator.
If using the direct mode there is no wind action in flight but it has the correct temperature.
If you use the Weather File mode, the wind works but the temperature does not.
How to solve this?
I use FSX STEAM.
Attachments:
Last edit: 8 months 1 day ago by pedropedra.

Please Log in or Create an account to join the conversation.

More
8 months 1 day ago #2651 by Restavr
Replied by Restavr on topic Bug Windy and Temperature
Change the weather source. From NOAA to VATSIM, for example.
The following user(s) said Thank You: niksan29

Please Log in or Create an account to join the conversation.

More
8 months 1 day ago #2652 by pedropedra
The error still persists, in addition you can see in the image the wind discrepancy reported for the one applied in the simulator.
Attachments:

Please Log in or Create an account to join the conversation.

More
8 months 1 day ago #2653 by Restavr
Replied by Restavr on topic Bug Windy and Temperature
This is really a strange behavior of the program, you can understand, perhaps, only by seeing the program log. Please send it to us.

Please Log in or Create an account to join the conversation.

More
8 months 20 hours ago #2657 by pedropedra
how to proceed to get the log and send?

Please Log in or Create an account to join the conversation.

More
8 months 16 hours ago #2658 by Restavr
Replied by Restavr on topic Bug Windy and Temperature
The log is located on the path specified in the settings, tab "General", FSrealWX Documents. The file is called fsrealwxv3. log. You can attach the file to a message, or send it by mail, as you like.
The following user(s) said Thank You: niksan29

Please Log in or Create an account to join the conversation.

More
8 months 3 hours ago - 8 months 3 hours ago #2659 by pedropedra
Okay, estou enviando o Log.


Notification: 15:44:12:073 - FSrealWXv3 - 32-Bit-Standard edition
Notification: 15:44:12:074 - FSUIPC lib found
Notification: 15:44:12:074 - SimConnect lib found
Notification: 15:44:12:074 - FSClient lib found
Notification: 15:44:12:075 - OpenSSL Lib:OpenSSL 1.1.1b 26 Feb 2019
Notification: 15:44:12:203 - OpenSSL 1.1.1c 28 May 2019
Notification: 15:44:12:203 - zlib 1.2.11 (Qt)
Notification: 15:44:12:203 - FSrealWX-Version: v3.0.2.2112
Notification: 15:44:12:203 - OS: windows 10 x86_64 Windows 10 (10.0)
Notification: 15:44:12:220 - (Main) - Folder founded: <a href="D:/Program Files (x86)/FSrealWX 3.0/tmp/"> D:/Program Files (x86)/FSrealWX 3.0/tmp/ </a>
Notification: 15:44:12:220 - (Main) - Folder founded: <a href="D:/pedro/Documents/FSrealWXV3/"> D:/pedro/Documents/FSrealWXV3/ </a>
Notification: 15:44:12:220 - (Main) - Folder founded: <a href="D:/pedro/Documents/FSrealWXV3/aircraftfiles/"> D:/pedro/Documents/FSrealWXV3/aircraftfiles/ </a>
Notification: 15:44:12:220 - (Main) - Folder founded: <a href="D:/pedro/Documents/FSrealWXV3/weatherfiles/"> D:/pedro/Documents/FSrealWXV3/weatherfiles/ </a>
Notification: 15:44:12:220 - (Main) - Folder founded: <a href="D:/pedro/Documents/FSrealWXV3/profiles/"> D:/pedro/Documents/FSrealWXV3/profiles/ </a>
Notification: 15:44:12:220 - (Main) - Folder founded: <a href="D:/pedro/Documents/FSrealWXV3/flights/"> D:/pedro/Documents/FSrealWXV3/flights/ </a>
Notification: 15:44:12:220 - (Main) - Folder founded: <a href="D:/pedro/Documents/FSrealWXV3/res/"> D:/pedro/Documents/FSrealWXV3/res/ </a>
Notification: 15:44:12:220 - (Main) - Folder founded: <a href="D:/pedro/Documents/FSrealWXV3/Charts/"> D:/pedro/Documents/FSrealWXV3/Charts/ </a>
Notification: 15:44:12:220 - (Main) - Folder founded: <a href="D:/pedro/Documents/FSrealWXV3/Backups/"> D:/pedro/Documents/FSrealWXV3/Backups/ </a>
Debug: 15:44:12:221 - (Main) - file deleted: fsrealwx_v3_history.php
Debug: 15:44:12:221 - (Main) - file deleted: fsrealwx_v3_info.php
Debug: 15:44:12:221 - (Main) - file deleted: weather.txt
Debug: 15:44:12:221 - (Main) - file deleted: weather_vatsim.gz
Debug: 15:44:12:221 - (Main) - file deleted: weather_vatsim.gz.0
Debug: 15:44:12:221 - (Main) - file deleted: weather_vatsim.gz.1
Notification: 15:44:12:783 - (NavData) - DB selected
Notification: 15:44:12:784 - (NavDB) airports: 13732
Notification: 15:44:49:672 - (NavData) - no additional airports
Notification: 15:44:49:673 - (Controller Weather) - Airport resource loaded
Notification: 15:44:49:673 - (Controller Weather) - Airports: 13732
Notification: 15:44:49:673 - (Controller Weather) - WXstation resource loaded
Notification: 15:44:49:683 - (Controller Weather) - Weather stations: 13392
Debug: 15:44:49:774 - (Flightplanner) - reading ./Resources/shape/ne_50m_land.shp
Debug: 15:44:49:849 - (Flightplanner) - reading ./Resources/shape/ne_50m_lakes.shp
Debug: 15:44:49:904 - (Flightplanner) - reading ./Resources/shape/ne_50m_urban_areas.shp
Debug: 15:44:49:958 - (Flightplanner) - reading ./Resources/shape/ne_50m_rivers_lake_centerlines.shp
Debug: 15:44:49:996 - (Flightplanner) - reading ./Resources/shape/ne_50m_admin_0_boundary_lines_land.shp
Debug: 15:44:50:035 - (Flightplanner) - reading ./Resources/shape/ne_50m_airports.shp
Notification: 15:44:50:035 - (FlightPlanDatabase) - check
Notification: 15:44:52:132 - (FlightPlanDatabase) - check user
Notification: 15:44:52:857 - (FlightPlanDatabase) - User: PedroPedra
Notification: 15:44:52:857 - (FlightPlanner) - Get Logo FlightPlanDatabase
Notification: 15:44:52:874 - (FlightPlanner) - load from resource
Notification: 15:44:52:880 - (Controller) - FSrealWX Key was found
Notification: 15:44:52:880 - (Controller) - Machine ID 18e24588-3468-4f04-a47b-3c9f67ec38c5
Notification: 15:44:52:880 - (Controller) - Weather server: wxdata1
Notification: 15:44:53:395 - (Controller) - download info file
Debug: 15:44:53:399 - (Controller Weather) - timer weather stopped
Notification: 15:44:53:399 - (Controller Weather) - Download weather from VATSIM
Debug: 15:44:53:401 - (ConnectWorker) - Next Job ID: 1, Name: Connect
Debug: 15:44:53:401 - (ConnectWorker) - init client
Error: 15:44:53:401 - (ConnectWorker) - not connected, Sim not Found
Debug: 15:44:53:401 - (ConnectWorker) - Job finished ID: 1, Name: Connect
Error: 15:44:53:404 - (Controller) - JobID:1 JobName:Connect Finished, Error: 1
Notification: 15:44:57:141 - (Controller) - FSrealWXv3 is up to date
Debug: 15:45:02:449 - (Downloader) - filename: D:/Program Files (x86)/FSrealWX 3.0/tmp/weather_vatsim.gz
Notification: 15:45:02:449 - (Downloader) - Weather download finished
Notification: 15:45:02:489 - (WeatherManager) Initialize weather data
Debug: 15:45:02:491 - (WeatherWorker) - Next Job ID: 1, Name: decode weather data
Notification: 15:45:02:580 - (WeatherManager) - metar initialization completed: 4995
Notification: 15:45:02:614 - (WeatherManager) - TAF initialization completed: 8592
Debug: 15:45:02:794 - (SynopDecoder) - Error: Header - No Synop Type founded: AAXX 07123 AAXX 0712464750 11560 82404 10266 20232 39667 40073 60081 70166 8297/ 333 0//52 59008 82620 81950 88464 94943 95873
Debug: 15:45:03:059 - (SynopDecoder) - Error: Header - No Synop Type founded: AAXX 07124 0 35566 43011 10111 20039 39670 40083 51042 91154 333 10244 2010691020 555 90712
Debug: 15:45:03:061 - (SynopDecoder) - Error: Header - No Synop Type founded: AAXX 07124 0 32966 20000 10194 20183 30054 40150 55002 91153 333 10322 20194555 90712
Debug: 15:45:03:066 - (SynopDecoder) - Error: Header - No Synop Type founded: AAXX 07124 0 15666 42107 10222 20183 39893 40103 51004 69901 91152 333 1030020222 555 90712
Debug: 15:45:03:066 - (SynopDecoder) - Error: Header - No Synop Type founded: AAXX 07124 0 32966 03205 10072 20050 39779 40158 53016 91153 333 10267 20072555 90712
Debug: 15:45:03:068 - (SynopDecoder) - Error: Header - No Synop Type founded: AAXX 07124 0 15466 40208 10250 20222 30158 40161 53001 60011 91151 333 1028920239 70010 555 90712
Debug: 15:45:03:216 - (SynopDecoder) - Error: Header - No Synop Type founded: AAXX 07124 AAXX 0712364401 32560 72204 10266 20196 39743 40112 878//333 0//00 58011 83820 87623 94904 95834
Debug: 15:45:03:216 - (SynopDecoder) - Error: Header - No Synop Type founded: AAXX 07124 AAXX 0712464450 32460 82204 10271 20207 39746 40097 888// 333 0//00 58014 82815 88620 94901 95831
Debug: 15:45:03:216 - (SynopDecoder) - Error: Header - No Synop Type founded: AAXX 07124 AAXX 0712364453 32460 51404 10286 20192 39/// 48/// 85200333 0//00 5//// 85812 94917 95837
Debug: 15:45:03:255 - (SynopDecoder) - Error: Header - No Synop Type founded: AAXX 07124 AAXX 0712364870 32460 70208 10252 20173 38892 48492 86262 333 0//00 59015 86815 87360 87080 94919
Debug: 15:45:03:255 - (SynopDecoder) - Error: Header - No Synop Type founded: AAXX 07124 AAXX 0712464851 32670 80705 10282 20219 39622 40110 8117/333 0//00 59005 81850 88365
Debug: 15:45:03:313 - (SynopDecoder) - Error: Header - No Synop Type founded: AAXX 07124 AAXX 0712361233 32560 72402 10310 20239 39813 40106 85202 333 0//00 58018 85830 83075 94919
Debug: 15:45:03:313 - (SynopDecoder) - Error: Header - No Synop Type founded: AAXX 07124 AAXX 0712461257 32560 62608 10298 20237 30045 40105 85330 333 0//00 58013 85620 83365
Debug: 15:45:03:313 - (SynopDecoder) - Error: Header - No Synop Type founded: AAXX 07124 AAXX 0712361265 32560 72212 10296 20244 39787 40092 86202 333 0//00 58000 86820 83075 94916 95876
Debug: 15:45:03:313 - (SynopDecoder) - Error: Header - No Synop Type founded: AAXX 07124 AAXX 0712461270 32560 62204 10292 20224 39738 40109 83131 333 0//00 58004 83830 83365 94939
Debug: 15:45:03:313 - (SynopDecoder) - Error: Header - No Synop Type founded: AAXX 07124 AAXX 0712361272 32560 42804 10300 20241 3//// 4//// 83532 333 0//00 5//// 83630
Debug: 15:45:03:313 - (SynopDecoder) - Error: Header - No Synop Type founded: AAXX 07124 AAXX 0712461277 32560 61804 10301 20251 39782 40100 84242 333 0//00 59001 84823 94919
Debug: 15:45:03:314 - (SynopDecoder) - Error: Header - No Synop Type founded: AAXX 07124 AAXX 0712361296 32560 70000 10260 20243 39712 40101 84830 333 0//00 59010 82820 83630 86359 94912 94915
Debug: 15:45:03:378 - (SynopDecoder) - Error: Header - No Synop Type founded: AAXX 07124 AAXX 0712361612 32460 51204 10322 20246 30085 40093 83530 333 0//00 58010 83613 85363
Debug: 15:45:03:378 - (SynopDecoder) - Error: Header - No Synop Type founded: AAXX 07124 AAXX 0712461627 32460 71806 10290 20250 3//// 4//// 87570 333 0//00 5//// 86613 82463
Debug: 15:45:03:378 - (SynopDecoder) - Error: Header - No Synop Type founded: AAXX 07124 AAXX 0712361630 32460 32204 10302 20245 30087 40106 83500 333 0//00 58016 83616
Debug: 15:45:03:378 - (SynopDecoder) - Error: Header - No Synop Type founded: AAXX 07124 AAXX 0712461660 11458 72017 10262 20252 39978 40085 69981 76162 8627/ 333 0//51 58007 86810 87463 94919
Debug: 15:45:03:378 - (SynopDecoder) - Error: Header - No Synop Type founded: AAXX 07124 AAXX 0712361666 11460 72406 10277 20246 30088 40098 69901 76162 86570 333 0//51 58012 86613 87363
Debug: 15:45:03:379 - (SynopDecoder) - Error: Header - No Synop Type founded: AAXX 07124 AAXX 0712461687 31460 72204 10288 20233 30053 40110 75055 872// 333 0//00 58021 87613
Debug: 15:45:03:379 - (SynopDecoder) - Error: Header - No Synop Type founded: AAXX 07124 AAXX 0712361698 11560 61808 10295 20253 30087 40098 69941 70166 84230 333 0//53 58018 84820 84363 94939 95839
Debug: 15:45:03:597 - (SynopDecoder) - Error: Header - No Synop Type founded: AAXX 07123 AAXX 0712461230 32560 42606 10297 20230 39837 40110 83101 333 0//00 58012 83820 94919
Debug: 15:45:03:597 - (SynopDecoder) - Error: Header - No Synop Type founded: AAXX 07123 AAXX 0712361233 32560 72402 10310 20239 39813 40106 85202 333 0//00 58018 85830 83075 94919
Debug: 15:45:03:597 - (SynopDecoder) - Error: Header - No Synop Type founded: AAXX 07123 AAXX 0712461257 32560 62608 10298 20237 30045 40105 85330 333 0//00 58013 85620 83365
Debug: 15:45:03:597 - (SynopDecoder) - Error: Header - No Synop Type founded: AAXX 07123 AAXX 0712361265 32560 72212 10296 20244 39787 40092 86202 333 0//00 58000 86820 83075 94916 95876
Debug: 15:45:03:597 - (SynopDecoder) - Error: Header - No Synop Type founded: AAXX 07123 AAXX 0712461270 32560 62204 10292 20224 39738 40109 83131 333 0//00 58004 83830 83365 94939
Debug: 15:45:03:597 - (SynopDecoder) - Error: Header - No Synop Type founded: AAXX 07123 AAXX 0712361272 32560 42804 10300 20241 3//// 4//// 83532 333 0//00 5//// 83630
Debug: 15:45:03:597 - (SynopDecoder) - Error: Header - No Synop Type founded: AAXX 07123 AAXX 0712461277 32560 61804 10301 20251 39782 40100 84242 333 0//00 59001 84823 94919
Debug: 15:45:03:597 - (SynopDecoder) - Error: Header - No Synop Type founded: AAXX 07123 AAXX 0712361296 32560 70000 10260 20243 39712 40101 84830 333 0//00 59010 82820 83630 86359 94912 94915
Debug: 15:45:03:598 - (SynopDecoder) - Error: Header - No Synop Type founded: AAXX 07123 AAXX 0712461285 32560 50402 10293 20240 39950 40099 85800 333 0//00 58006 85620
Debug: 15:45:03:695 - (SynopDecoder) - Error: Header - No Synop Type founded: BBXX SPREP SHIP 07124 99439 70766 46/// /1831 10220 20164 40089 58017 7//// 8//// 22200 0//// 2////
Debug: 15:45:03:736 - (SynopDecoder) - Error: Header - No Synop Type founded: BBXX SPREP SHIP 07124 99465 70843 46/// /2926 10126 20081 40034 5//// 7//// 8//// 22200 0//// 2////
Debug: 15:45:03:767 - (SynopDecoder) - Error: Header - No Synop Type founded: BBXX AUCE 07121 99131 10803 46/// /1402 10282 29082 40052 91159 22280
Debug: 15:45:03:767 - (SynopDecoder) - Error: Header - No Synop Type founded: BBXX AUXE 07121 99117 10927 46/// ///// 1//// 29/// 4//// 91209 22250
Debug: 15:45:03:767 - (SynopDecoder) - Error: Header - No Synop Type founded: BBXX AUXE 31061 99117 10927 46/// /0705 10282 29069 40122 90604 222//
Debug: 15:45:03:767 - (SynopDecoder) - Error: Header - No Synop Type founded: BBXX AUYB 16001 99154 10738 46/// /2907 10960 29100 40047 90002 222//
Debug: 15:45:03:768 - (SynopDecoder) - Error: Header - No Synop Type founded: BBXX AUZY 07121 99129 10748 46/// /0609 10273 29082 40048 91159 22280
Debug: 15:45:03:768 - (SynopDecoder) - Error: Header - No Synop Type founded: BBXX AVFV 07121 99188 10723 46/// /3502 10297 29100 40057 91209 22210
Debug: 15:45:03:768 - (SynopDecoder) - Error: Header - No Synop Type founded: BBXX VTVS 07121 99117 10927 46/// /3001 10294 29096 40082 91159 22280
Debug: 15:45:03:768 - (SynopDecoder) - Error: Header - No Synop Type founded: BBXX VTXB 07121 99117 10927 46/// /0302 10273 29090 40087 91210 22210
Debug: 15:45:03:769 - (SynopDecoder) - Error: Header - No Synop Type founded: BBXX VWFQ 07121 99100 10762 46/// /2201 1//// 29/// 4//// 91209 22280
Debug: 15:45:03:769 - (SynopDecoder) - Error: Header - No Synop Type founded: BBXX VWXS 07121 99100 10763 46/// /2101 10283 29081 40112 91210 22280
Notification: 15:45:03:930 - (WeatherManager) - additional weather data initialization completed: 14061
Notification: 15:45:12:260 - (WeatherManager) finished initialization of weather data: 4995 Metars, additional WX:8653
Debug: 15:45:17:796 - (Controller Weather) - timer weather started
Last edit: 8 months 3 hours ago by pedropedra.

Please Log in or Create an account to join the conversation.

More
8 months 3 hours ago #2660 by pedropedra
Please disregard the above log

Please Log in or Create an account to join the conversation.

More
8 months 2 hours ago #2661 by Restavr
Replied by Restavr on topic Bug Windy and Temperature
Okay, Will you send another one?

Please Log in or Create an account to join the conversation.

More
8 months 2 hours ago #2662 by pedropedra
Okay, I'm sending the log of the phase of a flight, the images also show the differences between the direct mode and the weather file.As you can see between the two there are differences between temperatures and winds.If using Direct Mode it has no wind action but it has a temperature action, if using weather file mode it has wind action but it does not have a temperature correction action.

Attachments:

Please Log in or Create an account to join the conversation.

Time to create page: 1.915 seconds

We use cookies on our website. Some of them are essential for the operation of the site, while others help us to improve this site and the user experience (tracking cookies). You can decide for yourself whether you want to allow cookies or not. Please note that if you reject them, you may not be able to use all the functionalities of the site.